sensor_id;sensor_type;location;lat;lon;timestamp;temperature;humidity
34283;DHT22;20542;49.828;8.746;2022-08-21T00:01:27;17.90;99.90
34283;DHT22;20542;49.828;8.746;2022-08-21T00:03:55;17.90;99.90
34283;DHT22;20542;49.828;8.746;2022-08-21T00:06:21;17.90;99.90
34283;DHT22;20542;49.828;8.746;2022-08-21T00:08:47;17.80;99.90
34283;DHT22;20542;49.828;8.746;2022-08-21T00:11:15;17.80;99.90
34283;DHT22;20542;49.828;8.746;2022-08-21T00:13:41;17.70;99.90
34283;DHT22;20542;49.828;8.746;2022-08-21T00:16:06;17.60;99.90
34283;DHT22;20542;49.828;8.746;2022-08-21T00:18:32;17.60;99.90
34283;DHT22;20542;49.828;8.746;2022-08-21T00:20:58;17.50;99.90
34283;DHT22;20542;49.828;8.746;2022-08-21T00:23:23;17.40;99.90
34283;DHT22;20542;49.828;8.746;2022-08-21T00:25:49;17.50;99.90
34283;DHT22;20542;49.828;8.746;2022-08-21T00:28:15;17.40;99.90
34283;DHT22;20542;49.828;8.746;2022-08-21T00:30:41;17.40;99.90
34283;DHT22;20542;49.828;8.746;2022-08-21T00:33:07;17.40;99.90
34283;DHT22;20542;49.828;8.746;2022-08-21T00:35:37;17.40;99.90
34283;DHT22;20542;49.828;8.746;2022-08-21T00:38:05;17.20;99.90
34283;DHT22;20542;49.828;8.746;2022-08-21T00:40:42;17.10;99.90
34283;DHT22;20542;49.828;8.746;2022-08-21T00:43:10;17.10;99.90
34283;DHT22;20542;49.828;8.746;2022-08-21T00:45:37;17.10;99.90
34283;DHT22;20542;49.828;8.746;2022-08-21T00:48:03;17.00;99.90
34283;DHT22;20542;49.828;8.746;2022-08-21T00:50:32;17.00;99.90
34283;DHT22;20542;49.828;8.746;2022-08-21T00:52:59;17.00;99.90
34283;DHT22;20542;49.828;8.746;2022-08-21T00:55:27;16.90;99.90
34283;DHT22;20542;49.828;8.746;2022-08-21T00:57:56;17.00;99.90
34283;DHT22;20542;49.828;8.746;2022-08-21T01:00:32;17.00;99.90
34283;DHT22;20542;49.828;8.746;2022-08-21T01:03:00;17.00;99.90
34283;DHT22;20542;49.828;8.746;2022-08-21T01:05:27;17.00;99.90
34283;DHT22;20542;49.828;8.746;2022-08-21T01:07:54;17.00;99.90
34283;DHT22;20542;49.828;8.746;2022-08-21T01:10:22;17.00;99.90
34283;DHT22;20542;49.828;8.746;2022-08-21T01:12:49;17.00;99.90
34283;DHT22;20542;49.828;8.746;2022-08-21T01:15:16;16.90;99.90
34283;DHT22;20542;49.828;8.746;2022-08-21T01:17:43;17.00;99.90
34283;DHT22;20542;49.828;8.746;2022-08-21T01:20:11;16.90;99.90
34283;DHT22;20542;49.828;8.746;2022-08-21T01:22:37;16.90;99.90
34283;DHT22;20542;49.828;8.746;2022-08-21T01:25:07;16.90;99.90
34283;DHT22;20542;49.828;8.746;2022-08-21T01:27:33;16.90;99.90
34283;DHT22;20542;49.828;8.746;2022-08-21T01:30:13;16.90;99.90
34283;DHT22;20542;49.828;8.746;2022-08-21T01:32:40;16.90;99.90
34283;DHT22;20542;49.828;8.746;2022-08-21T01:35:06;16.80;99.90
34283;DHT22;20542;49.828;8.746;2022-08-21T01:37:32;16.80;99.90
34283;DHT22;20542;49.828;8.746;2022-08-21T01:39:58;16.80;99.90
34283;DHT22;20542;49.828;8.746;2022-08-21T01:42:24;16.80;99.90
34283;DHT22;20542;49.828;8.746;2022-08-21T01:44:49;16.80;99.90
34283;DHT22;20542;49.828;8.746;2022-08-21T01:47:15;16.80;99.90
34283;DHT22;20542;49.828;8.746;2022-08-21T01:49:42;16.80;99.90
34283;DHT22;20542;49.828;8.746;2022-08-21T01:52:08;16.70;99.90
34283;DHT22;20542;49.828;8.746;2022-08-21T01:54:34;16.60;99.90
34283;DHT22;20542;49.828;8.746;2022-08-21T01:57:00;16.70;99.90
34283;DHT22;20542;49.828;8.746;2022-08-21T01:59:26;16.70;99.90
34283;DHT22;20542;49.828;8.746;2022-08-21T02:01:52;16.70;99.90
34283;DHT22;20542;49.828;8.746;2022-08-21T02:04:22;16.60;99.90
34283;DHT22;20542;49.828;8.746;2022-08-21T02:06:48;16.50;99.90
34283;DHT22;20542;49.828;8.746;2022-08-21T02:09:14;16.50;99.90
34283;DHT22;20542;49.828;8.746;2022-08-21T02:11:40;16.40;99.90
34283;DHT22;20542;49.828;8.746;2022-08-21T02:14:11;16.30;99.90
34283;DHT22;20542;49.828;8.746;2022-08-21T02:16:39;16.40;99.90
34283;DHT22;20542;49.828;8.746;2022-08-21T02:19:05;16.40;99.90
34283;DHT22;20542;49.828;8.746;2022-08-21T02:21:31;16.40;99.90
34283;DHT22;20542;49.828;8.746;2022-08-21T02:23:56;16.30;99.90
34283;DHT22;20542;49.828;8.746;2022-08-21T02:26:22;16.30;99.90
34283;DHT22;20542;49.828;8.746;2022-08-21T02:28:48;16.30;99.90
34283;DHT22;20542;49.828;8.746;2022-08-21T02:31:14;16.20;99.90
34283;DHT22;20542;49.828;8.746;2022-08-21T02:33:40;16.20;99.90
34283;DHT22;20542;49.828;8.746;2022-08-21T02:36:06;16.20;99.90
34283;DHT22;20542;49.828;8.746;2022-08-21T02:38:34;16.30;99.90
34283;DHT22;20542;49.828;8.746;2022-08-21T02:41:05;16.20;99.90
34283;DHT22;20542;49.828;8.746;2022-08-21T02:43:30;16.20;99.90
34283;DHT22;20542;49.828;8.746;2022-08-21T02:45:57;16.20;99.90
34283;DHT22;20542;49.828;8.746;2022-08-21T02:48:26;16.30;99.90
34283;DHT22;20542;49.828;8.746;2022-08-21T02:50:57;16.20;99.90
34283;DHT22;20542;49.828;8.746;2022-08-21T02:53:23;16.10;99.90
34283;DHT22;20542;49.828;8.746;2022-08-21T02:55:50;16.00;99.90
34283;DHT22;20542;49.828;8.746;2022-08-21T02:58:19;16.00;99.90
34283;DHT22;20542;49.828;8.746;2022-08-21T03:00:45;16.00;99.90
34283;DHT22;20542;49.828;8.746;2022-08-21T03:03:11;15.90;99.90
34283;DHT22;20542;49.828;8.746;2022-08-21T03:05:37;15.80;99.90
34283;DHT22;20542;49.828;8.746;2022-08-21T03:08:05;15.80;99.90
34283;DHT22;20542;49.828;8.746;2022-08-21T03:10:35;15.80;99.90
34283;DHT22;20542;49.828;8.746;2022-08-21T03:13:01;15.80;99.90
34283;DHT22;20542;49.828;8.746;2022-08-21T03:15:29;15.80;99.90
34283;DHT22;20542;49.828;8.746;2022-08-21T03:17:55;15.80;99.90
34283;DHT22;20542;49.828;8.746;2022-08-21T03:20:23;15.70;99.90
34283;DHT22;20542;49.828;8.746;2022-08-21T03:22:49;15.70;99.90
34283;DHT22;20542;49.828;8.746;2022-08-21T03:25:15;15.80;99.90
34283;DHT22;20542;49.828;8.746;2022-08-21T03:27:41;15.90;99.90
34283;DHT22;20542;49.828;8.746;2022-08-21T03:30:07;15.80;99.90
34283;DHT22;20542;49.828;8.746;2022-08-21T03:32:34;15.80;99.90
34283;DHT22;20542;49.828;8.746;2022-08-21T03:35:00;15.70;99.90
34283;DHT22;20542;49.828;8.746;2022-08-21T03:37:27;15.80;99.90
34283;DHT22;20542;49.828;8.746;2022-08-21T03:39:53;15.70;99.90
34283;DHT22;20542;49.828;8.746;2022-08-21T03:42:19;15.60;99.90
34283;DHT22;20542;49.828;8.746;2022-08-21T03:44:44;15.50;99.90
34283;DHT22;20542;49.828;8.746;2022-08-21T03:47:10;15.50;99.90
34283;DHT22;20542;49.828;8.746;2022-08-21T03:49:36;15.50;99.90
34283;DHT22;20542;49.828;8.746;2022-08-21T03:52:02;15.40;99.90
34283;DHT22;20542;49.828;8.746;2022-08-21T03:54:28;15.40;99.90
34283;DHT22;20542;49.828;8.746;2022-08-21T03:56:53;15.30;99.90
34283;DHT22;20542;49.828;8.746;2022-08-21T03:59:19;15.40;99.90
34283;DHT22;20542;49.828;8.746;2022-08-21T04:02:00;15.40;99.90
34283;DHT22;20542;49.828;8.746;2022-08-21T04:04:27;15.40;99.90
34283;DHT22;20542;49.828;8.746;2022-08-21T04:06:53;15.30;99.90
34283;DHT22;20542;49.828;8.746;2022-08-21T04:09:19;15.20;99.90
34283;DHT22;20542;49.828;8.746;2022-08-21T04:11:46;15.20;99.90
34283;DHT22;20542;49.828;8.746;2022-08-21T04:14:13;15.10;99.90
34283;DHT22;20542;49.828;8.746;2022-08-21T04:16:39;15.10;99.90
34283;DHT22;20542;49.828;8.746;2022-08-21T04:19:05;15.10;99.90
34283;DHT22;20542;49.828;8.746;2022-08-21T04:21:31;15.10;99.90
34283;DHT22;20542;49.828;8.746;2022-08-21T04:23:57;15.10;99.90
34283;DHT22;20542;49.828;8.746;2022-08-21T04:26:23;15.10;99.90
34283;DHT22;20542;49.828;8.746;2022-08-21T04:28:49;15.10;99.90
34283;DHT22;20542;49.828;8.746;2022-08-21T04:31:14;15.20;99.90
34283;DHT22;20542;49.828;8.746;2022-08-21T04:33:40;15.10;99.90
34283;DHT22;20542;49.828;8.746;2022-08-21T04:36:06;15.10;99.90
34283;DHT22;20542;49.828;8.746;2022-08-21T04:38:32;15.10;99.90
34283;DHT22;20542;49.828;8.746;2022-08-21T04:40:58;15.00;99.90
34283;DHT22;20542;49.828;8.746;2022-08-21T04:43:23;15.00;99.90
34283;DHT22;20542;49.828;8.746;2022-08-21T04:45:50;15.00;99.90
34283;DHT22;20542;49.828;8.746;2022-08-21T04:48:17;15.10;99.90
34283;DHT22;20542;49.828;8.746;2022-08-21T04:53:34;15.00;99.90
34283;DHT22;20542;49.828;8.746;2022-08-21T04:56:08;15.00;99.90
34283;DHT22;20542;49.828;8.746;2022-08-21T04:58:36;15.10;99.90
34283;DHT22;20542;49.828;8.746;2022-08-21T05:01:04;15.10;99.90
34283;DHT22;20542;49.828;8.746;2022-08-21T05:03:30;15.20;99.90
34283;DHT22;20542;49.828;8.746;2022-08-21T05:05:58;15.30;99.90
34283;DHT22;20542;49.828;8.746;2022-08-21T05:08:25;15.30;99.90
34283;DHT22;20542;49.828;8.746;2022-08-21T05:10:51;15.40;99.90
34283;DHT22;20542;49.828;8.746;2022-08-21T05:13:17;15.60;99.90
34283;DHT22;20542;49.828;8.746;2022-08-21T05:15:43;15.70;99.90
34283;DHT22;20542;49.828;8.746;2022-08-21T05:18:09;15.70;99.90
34283;DHT22;20542;49.828;8.746;2022-08-21T05:20:35;15.80;99.90
34283;DHT22;20542;49.828;8.746;2022-08-21T05:23:10;15.90;99.90
34283;DHT22;20542;49.828;8.746;2022-08-21T05:25:36;16.00;99.90
34283;DHT22;20542;49.828;8.746;2022-08-21T05:28:02;16.10;99.90
34283;DHT22;20542;49.828;8.746;2022-08-21T05:30:27;16.30;99.90
34283;DHT22;20542;49.828;8.746;2022-08-21T05:33:01;16.30;99.90
34283;DHT22;20542;49.828;8.746;2022-08-21T05:35:27;16.50;99.90
34283;DHT22;20542;49.828;8.746;2022-08-21T05:37:53;16.60;99.90
34283;DHT22;20542;49.828;8.746;2022-08-21T05:40:19;16.70;99.90
34283;DHT22;20542;49.828;8.746;2022-08-21T05:42:45;16.80;99.90
34283;DHT22;20542;49.828;8.746;2022-08-21T05:45:10;16.90;99.90
34283;DHT22;20542;49.828;8.746;2022-08-21T05:47:36;17.00;99.90
34283;DHT22;20542;49.828;8.746;2022-08-21T05:50:03;17.20;99.90
34283;DHT22;20542;49.828;8.746;2022-08-21T05:52:28;17.40;99.90
34283;DHT22;20542;49.828;8.746;2022-08-21T05:54:54;17.50;99.90
34283;DHT22;20542;49.828;8.746;2022-08-21T05:57:20;17.70;99.90
34283;DHT22;20542;49.828;8.746;2022-08-21T05:59:46;17.80;99.90
34283;DHT22;20542;49.828;8.746;2022-08-21T06:02:11;17.90;99.90
34283;DHT22;20542;49.828;8.746;2022-08-21T06:04:38;18.10;99.90
34283;DHT22;20542;49.828;8.746;2022-08-21T06:07:04;18.30;99.90
34283;DHT22;20542;49.828;8.746;2022-08-21T06:09:31;18.50;99.90
34283;DHT22;20542;49.828;8.746;2022-08-21T06:11:57;18.60;99.90
34283;DHT22;20542;49.828;8.746;2022-08-21T06:14:22;18.70;99.90
34283;DHT22;20542;49.828;8.746;2022-08-21T06:16:48;18.80;99.90
34283;DHT22;20542;49.828;8.746;2022-08-21T06:19:13;18.90;99.90
34283;DHT22;20542;49.828;8.746;2022-08-21T06:21:39;19.20;99.90
34283;DHT22;20542;49.828;8.746;2022-08-21T06:24:05;19.50;99.90
34283;DHT22;20542;49.828;8.746;2022-08-21T06:26:32;19.70;99.90
34283;DHT22;20542;49.828;8.746;2022-08-21T06:28:57;19.70;99.90
34283;DHT22;20542;49.828;8.746;2022-08-21T06:31:26;19.80;99.90
34283;DHT22;20542;49.828;8.746;2022-08-21T06:33:52;20.20;99.90
34283;DHT22;20542;49.828;8.746;2022-08-21T06:36:19;20.40;99.90
34283;DHT22;20542;49.828;8.746;2022-08-21T06:38:46;20.60;99.90
34283;DHT22;20542;49.828;8.746;2022-08-21T06:41:11;20.70;99.90
34283;DHT22;20542;49.828;8.746;2022-08-21T06:43:37;20.90;99.90
34283;DHT22;20542;49.828;8.746;2022-08-21T06:46:03;21.20;99.90
34283;DHT22;20542;49.828;8.746;2022-08-21T06:48:28;21.50;99.90
34283;DHT22;20542;49.828;8.746;2022-08-21T06:50:56;21.70;99.90
34283;DHT22;20542;49.828;8.746;2022-08-21T06:53:21;21.90;99.90
34283;DHT22;20542;49.828;8.746;2022-08-21T06:55:48;22.00;99.90
34283;DHT22;20542;49.828;8.746;2022-08-21T06:58:14;22.20;99.90
34283;DHT22;20542;49.828;8.746;2022-08-21T07:00:42;22.50;99.90
34283;DHT22;20542;49.828;8.746;2022-08-21T07:03:15;22.60;99.90
34283;DHT22;20542;49.828;8.746;2022-08-21T07:05:41;22.60;99.90
34283;DHT22;20542;49.828;8.746;2022-08-21T07:08:06;22.70;99.90
34283;DHT22;20542;49.828;8.746;2022-08-21T07:10:32;22.90;99.90
34283;DHT22;20542;49.828;8.746;2022-08-21T07:12:58;23.10;99.90
34283;DHT22;20542;49.828;8.746;2022-08-21T07:15:23;23.20;99.90
34283;DHT22;20542;49.828;8.746;2022-08-21T07:17:49;23.30;99.90
34283;DHT22;20542;49.828;8.746;2022-08-21T07:20:14;23.30;99.90
34283;DHT22;20542;49.828;8.746;2022-08-21T07:22:41;23.50;99.90
34283;DHT22;20542;49.828;8.746;2022-08-21T07:25:08;23.80;99.90
34283;DHT22;20542;49.828;8.746;2022-08-21T07:27:33;24.10;99.90
34283;DHT22;20542;49.828;8.746;2022-08-21T07:29:59;24.10;99.90
34283;DHT22;20542;49.828;8.746;2022-08-21T07:32:25;24.40;99.90
34283;DHT22;20542;49.828;8.746;2022-08-21T07:34:50;24.40;99.90
34283;DHT22;20542;49.828;8.746;2022-08-21T07:37:16;24.60;99.90
34283;DHT22;20542;49.828;8.746;2022-08-21T07:39:41;24.70;99.90
34283;DHT22;20542;49.828;8.746;2022-08-21T07:42:07;24.70;99.90
34283;DHT22;20542;49.828;8.746;2022-08-21T07:44:33;24.90;99.90
34283;DHT22;20542;49.828;8.746;2022-08-21T07:47:00;24.70;99.90
34283;DHT22;20542;49.828;8.746;2022-08-21T07:49:27;24.80;99.90
34283;DHT22;20542;49.828;8.746;2022-08-21T07:51:52;24.90;99.90
34283;DHT22;20542;49.828;8.746;2022-08-21T07:54:18;25.00;99.90
34283;DHT22;20542;49.828;8.746;2022-08-21T07:56:43;24.80;99.90
34283;DHT22;20542;49.828;8.746;2022-08-21T07:59:09;25.10;99.90
34283;DHT22;20542;49.828;8.746;2022-08-21T08:01:34;25.50;99.90
34283;DHT22;20542;49.828;8.746;2022-08-21T08:04:00;25.70;99.90
34283;DHT22;20542;49.828;8.746;2022-08-21T08:06:26;25.90;99.90
34283;DHT22;20542;49.828;8.746;2022-08-21T08:08:51;26.00;99.90
34283;DHT22;20542;49.828;8.746;2022-08-21T08:11:17;25.70;99.90
34283;DHT22;20542;49.828;8.746;2022-08-21T08:13:49;25.50;99.90
34283;DHT22;20542;49.828;8.746;2022-08-21T08:16:15;25.30;99.90
34283;DHT22;20542;49.828;8.746;2022-08-21T08:18:41;25.70;99.90
34283;DHT22;20542;49.828;8.746;2022-08-21T08:21:08;26.00;99.90
34283;DHT22;20542;49.828;8.746;2022-08-21T08:23:34;26.30;99.90
34283;DHT22;20542;49.828;8.746;2022-08-21T08:26:00;26.30;99.90
34283;DHT22;20542;49.828;8.746;2022-08-21T08:28:28;25.80;99.90
34283;DHT22;20542;49.828;8.746;2022-08-21T08:30:54;25.80;99.90
34283;DHT22;20542;49.828;8.746;2022-08-21T08:33:19;25.70;99.90
34283;DHT22;20542;49.828;8.746;2022-08-21T08:35:48;25.40;99.90
34283;DHT22;20542;49.828;8.746;2022-08-21T08:38:15;25.70;99.90
34283;DHT22;20542;49.828;8.746;2022-08-21T08:43:37;26.20;99.90
34283;DHT22;20542;49.828;8.746;2022-08-21T08:46:13;26.40;99.90
34283;DHT22;20542;49.828;8.746;2022-08-21T08:48:53;26.40;99.90
34283;DHT22;20542;49.828;8.746;2022-08-21T08:54:12;26.30;99.90
34283;DHT22;20542;49.828;8.746;2022-08-21T08:56:40;26.50;99.90
34283;DHT22;20542;49.828;8.746;2022-08-21T08:59:16;26.60;99.90
34283;DHT22;20542;49.828;8.746;2022-08-21T09:01:43;26.50;99.90
34283;DHT22;20542;49.828;8.746;2022-08-21T09:04:10;26.70;99.90
34283;DHT22;20542;49.828;8.746;2022-08-21T09:07:04;26.70;99.90
34283;DHT22;20542;49.828;8.746;2022-08-21T09:09:48;26.70;99.90
34283;DHT22;20542;49.828;8.746;2022-08-21T09:18:32;26.70;99.90
34283;DHT22;20542;49.828;8.746;2022-08-21T09:21:20;26.40;99.90
34283;DHT22;20542;49.828;8.746;2022-08-21T09:24:00;26.50;99.90
34283;DHT22;20542;49.828;8.746;2022-08-21T09:26:43;26.70;99.90
34283;DHT22;20542;49.828;8.746;2022-08-21T09:29:12;26.80;99.90
34283;DHT22;20542;49.828;8.746;2022-08-21T09:31:38;26.60;99.90
34283;DHT22;20542;49.828;8.746;2022-08-21T09:34:11;26.70;99.90
34283;DHT22;20542;49.828;8.746;2022-08-21T09:36:45;27.10;99.90
34283;DHT22;20542;49.828;8.746;2022-08-21T09:39:21;27.50;99.90
34283;DHT22;20542;49.828;8.746;2022-08-21T09:41:56;27.30;99.90
34283;DHT22;20542;49.828;8.746;2022-08-21T09:44:29;27.30;99.90
34283;DHT22;20542;49.828;8.746;2022-08-21T09:46:55;27.30;99.90
34283;DHT22;20542;49.828;8.746;2022-08-21T09:49:30;27.60;99.90
34283;DHT22;20542;49.828;8.746;2022-08-21T09:51:56;27.50;99.90
34283;DHT22;20542;49.828;8.746;2022-08-21T09:54:29;27.90;99.90
34283;DHT22;20542;49.828;8.746;2022-08-21T09:56:59;28.00;99.90
34283;DHT22;20542;49.828;8.746;2022-08-21T09:59:44;27.60;99.90
34283;DHT22;20542;49.828;8.746;2022-08-21T10:02:30;27.10;99.90
34283;DHT22;20542;49.828;8.746;2022-08-21T10:05:03;27.20;99.90
34283;DHT22;20542;49.828;8.746;2022-08-21T10:07:31;27.40;99.90
34283;DHT22;20542;49.828;8.746;2022-08-21T10:12:42;27.90;99.90
34283;DHT22;20542;49.828;8.746;2022-08-21T10:15:21;28.10;99.90
34283;DHT22;20542;49.828;8.746;2022-08-21T10:17:52;28.50;99.90
34283;DHT22;20542;49.828;8.746;2022-08-21T10:20:23;28.70;99.90
34283;DHT22;20542;49.828;8.746;2022-08-21T10:25:44;28.80;99.90
34283;DHT22;20542;49.828;8.746;2022-08-21T10:28:22;29.10;99.90
34283;DHT22;20542;49.828;8.746;2022-08-21T10:31:03;29.30;99.90
34283;DHT22;20542;49.828;8.746;2022-08-21T10:36:20;29.20;99.90
34283;DHT22;20542;49.828;8.746;2022-08-21T10:38:54;29.30;99.90
34283;DHT22;20542;49.828;8.746;2022-08-21T10:57:11;27.90;99.90
34283;DHT22;20542;49.828;8.746;2022-08-21T10:59:47;28.00;99.90
34283;DHT22;20542;49.828;8.746;2022-08-21T11:02:26;28.00;99.90
34283;DHT22;20542;49.828;8.746;2022-08-21T11:04:57;27.90;99.90
34283;DHT22;20542;49.828;8.746;2022-08-21T11:07:32;27.70;99.90
34283;DHT22;20542;49.828;8.746;2022-08-21T11:10:05;27.80;99.90
34283;DHT22;20542;49.828;8.746;2022-08-21T11:12:44;27.90;99.90
34283;DHT22;20542;49.828;8.746;2022-08-21T11:15:37;28.50;99.90
34283;DHT22;20542;49.828;8.746;2022-08-21T11:18:21;28.40;99.90
34283;DHT22;20542;49.828;8.746;2022-08-21T11:21:19;28.30;99.90
34283;DHT22;20542;49.828;8.746;2022-08-21T11:26:43;28.30;99.90
34283;DHT22;20542;49.828;8.746;2022-08-21T11:29:32;27.90;99.90
34283;DHT22;20542;49.828;8.746;2022-08-21T11:32:21;27.50;99.90
34283;DHT22;20542;49.828;8.746;2022-08-21T11:51:17;28.00;99.90
34283;DHT22;20542;49.828;8.746;2022-08-21T11:56:31;28.10;99.60
34283;DHT22;20542;49.828;8.746;2022-08-21T11:59:07;27.90;99.90
34283;DHT22;20542;49.828;8.746;2022-08-21T12:01:39;28.00;99.70
34283;DHT22;20542;49.828;8.746;2022-08-21T12:04:16;28.20;99.70
34283;DHT22;20542;49.828;8.746;2022-08-21T12:06:42;28.30;98.80
34283;DHT22;20542;49.828;8.746;2022-08-21T12:12:05;28.80;98.20
34283;DHT22;20542;49.828;8.746;2022-08-21T12:14:45;29.00;98.90
34283;DHT22;20542;49.828;8.746;2022-08-21T12:17:19;28.70;98.70
34283;DHT22;20542;49.828;8.746;2022-08-21T12:19:45;28.90;98.10
34283;DHT22;20542;49.828;8.746;2022-08-21T12:22:21;28.80;96.30
34283;DHT22;20542;49.828;8.746;2022-08-21T12:24:50;29.00;97.30
34283;DHT22;20542;49.828;8.746;2022-08-21T12:27:30;29.00;97.90
34283;DHT22;20542;49.828;8.746;2022-08-21T12:30:23;29.20;98.20
34283;DHT22;20542;49.828;8.746;2022-08-21T12:33:01;29.10;97.00
34283;DHT22;20542;49.828;8.746;2022-08-21T12:38:14;28.70;95.70
34283;DHT22;20542;49.828;8.746;2022-08-21T12:40:50;28.80;96.60
34283;DHT22;20542;49.828;8.746;2022-08-21T12:43:37;29.00;97.00
34283;DHT22;20542;49.828;8.746;2022-08-21T12:46:03;28.80;96.60
34283;DHT22;20542;49.828;8.746;2022-08-21T12:48:47;28.50;96.90
34283;DHT22;20542;49.828;8.746;2022-08-21T12:51:22;27.90;96.70
34283;DHT22;20542;49.828;8.746;2022-08-21T12:53:55;28.00;97.40
34283;DHT22;20542;49.828;8.746;2022-08-21T12:56:26;28.30;97.60
34283;DHT22;20542;49.828;8.746;2022-08-21T12:59:04;28.60;97.50
34283;DHT22;20542;49.828;8.746;2022-08-21T13:01:36;28.90;97.40
34283;DHT22;20542;49.828;8.746;2022-08-21T13:04:10;28.90;97.20
34283;DHT22;20542;49.828;8.746;2022-08-21T13:06:44;29.10;96.50
34283;DHT22;20542;49.828;8.746;2022-08-21T13:09:13;29.30;96.90
34283;DHT22;20542;49.828;8.746;2022-08-21T13:11:41;29.30;96.50
34283;DHT22;20542;49.828;8.746;2022-08-21T13:14:36;29.30;96.20
34283;DHT22;20542;49.828;8.746;2022-08-21T13:17:03;29.30;96.10
34283;DHT22;20542;49.828;8.746;2022-08-21T13:19:29;29.10;95.10
34283;DHT22;20542;49.828;8.746;2022-08-21T13:21:55;29.10;95.00
34283;DHT22;20542;49.828;8.746;2022-08-21T13:24:46;29.30;95.00
34283;DHT22;20542;49.828;8.746;2022-08-21T13:27:27;29.50;94.50
34283;DHT22;20542;49.828;8.746;2022-08-21T13:30:10;29.80;95.00
34283;DHT22;20542;49.828;8.746;2022-08-21T13:32:40;29.80;94.90
34283;DHT22;20542;49.828;8.746;2022-08-21T13:35:11;29.90;95.10
34283;DHT22;20542;49.828;8.746;2022-08-21T13:37:39;30.10;94.60
34283;DHT22;20542;49.828;8.746;2022-08-21T13:40:09;30.20;93.90
34283;DHT22;20542;49.828;8.746;2022-08-21T13:42:39;30.40;94.80
34283;DHT22;20542;49.828;8.746;2022-08-21T13:45:13;30.10;93.80
34283;DHT22;20542;49.828;8.746;2022-08-21T13:47:38;30.20;94.50
34283;DHT22;20542;49.828;8.746;2022-08-21T13:50:05;30.30;94.00
34283;DHT22;20542;49.828;8.746;2022-08-21T13:52:33;30.20;93.80
34283;DHT22;20542;49.828;8.746;2022-08-21T13:55:06;29.60;93.60
34283;DHT22;20542;49.828;8.746;2022-08-21T13:57:34;29.60;93.80
34283;DHT22;20542;49.828;8.746;2022-08-21T14:02:39;29.20;94.10
34283;DHT22;20542;49.828;8.746;2022-08-21T14:05:06;29.20;94.90
34283;DHT22;20542;49.828;8.746;2022-08-21T14:07:38;29.10;94.00
34283;DHT22;20542;49.828;8.746;2022-08-21T14:10:18;28.90;94.40
34283;DHT22;20542;49.828;8.746;2022-08-21T14:13:49;28.60;94.70
34283;DHT22;20542;49.828;8.746;2022-08-21T14:15:42;28.30;95.20
34283;DHT22;20542;49.828;8.746;2022-08-21T14:18:13;28.40;95.00
34283;DHT22;20542;49.828;8.746;2022-08-21T14:20:39;28.70;95.10
34283;DHT22;20542;49.828;8.746;2022-08-21T14:23:05;28.80;94.30
34283;DHT22;20542;49.828;8.746;2022-08-21T14:25:41;28.80;94.60
34283;DHT22;20542;49.828;8.746;2022-08-21T14:28:11;29.00;94.90
34283;DHT22;20542;49.828;8.746;2022-08-21T14:30:42;28.90;93.50
34283;DHT22;20542;49.828;8.746;2022-08-21T14:33:24;28.80;93.80
34283;DHT22;20542;49.828;8.746;2022-08-21T14:35:50;28.80;94.70
34283;DHT22;20542;49.828;8.746;2022-08-21T14:38:19;28.80;94.70
34283;DHT22;20542;49.828;8.746;2022-08-21T14:40:52;28.80;94.10
34283;DHT22;20542;49.828;8.746;2022-08-21T14:43:19;28.70;94.30
34283;DHT22;20542;49.828;8.746;2022-08-21T14:45:45;28.70;94.70
34283;DHT22;20542;49.828;8.746;2022-08-21T14:48:11;28.50;94.00
34283;DHT22;20542;49.828;8.746;2022-08-21T14:50:37;28.40;94.30
34283;DHT22;20542;49.828;8.746;2022-08-21T14:53:02;28.40;94.40
34283;DHT22;20542;49.828;8.746;2022-08-21T14:55:30;28.70;94.20
34283;DHT22;20542;49.828;8.746;2022-08-21T14:57:56;28.70;93.60
34283;DHT22;20542;49.828;8.746;2022-08-21T15:00:24;28.90;94.10
34283;DHT22;20542;49.828;8.746;2022-08-21T15:02:50;28.90;93.90
34283;DHT22;20542;49.828;8.746;2022-08-21T15:05:17;28.60;93.50
34283;DHT22;20542;49.828;8.746;2022-08-21T15:07:43;28.30;93.30
34283;DHT22;20542;49.828;8.746;2022-08-21T15:10:10;28.10;93.50
34283;DHT22;20542;49.828;8.746;2022-08-21T15:12:36;28.10;93.00
34283;DHT22;20542;49.828;8.746;2022-08-21T15:15:04;28.20;93.20
34283;DHT22;20542;49.828;8.746;2022-08-21T15:17:30;28.20;92.90
34283;DHT22;20542;49.828;8.746;2022-08-21T15:19:56;28.20;93.00
34283;DHT22;20542;49.828;8.746;2022-08-21T15:22:22;28.30;93.20
34283;DHT22;20542;49.828;8.746;2022-08-21T15:24:47;28.40;93.40
34283;DHT22;20542;49.828;8.746;2022-08-21T15:27:13;28.50;92.90
34283;DHT22;20542;49.828;8.746;2022-08-21T15:29:41;28.30;92.20
34283;DHT22;20542;49.828;8.746;2022-08-21T15:32:20;28.10;93.00
34283;DHT22;20542;49.828;8.746;2022-08-21T15:34:48;28.10;93.20
34283;DHT22;20542;49.828;8.746;2022-08-21T15:37:13;28.10;93.60
34283;DHT22;20542;49.828;8.746;2022-08-21T15:39:39;28.10;93.60
34283;DHT22;20542;49.828;8.746;2022-08-21T15:42:05;28.10;93.30
34283;DHT22;20542;49.828;8.746;2022-08-21T15:44:30;28.10;93.00
34283;DHT22;20542;49.828;8.746;2022-08-21T15:46:57;28.10;93.50
34283;DHT22;20542;49.828;8.746;2022-08-21T15:49:23;27.70;93.30
34283;DHT22;20542;49.828;8.746;2022-08-21T15:51:49;27.60;93.30
34283;DHT22;20542;49.828;8.746;2022-08-21T15:54:15;27.40;93.30
34283;DHT22;20542;49.828;8.746;2022-08-21T15:56:43;27.00;92.80
34283;DHT22;20542;49.828;8.746;2022-08-21T15:59:15;26.90;93.20
34283;DHT22;20542;49.828;8.746;2022-08-21T16:01:42;26.90;93.60
34283;DHT22;20542;49.828;8.746;2022-08-21T16:04:09;26.90;93.70
34283;DHT22;20542;49.828;8.746;2022-08-21T16:06:34;26.80;93.30
34283;DHT22;20542;49.828;8.746;2022-08-21T16:09:00;26.70;94.00
34283;DHT22;20542;49.828;8.746;2022-08-21T16:11:27;26.70;93.80
34283;DHT22;20542;49.828;8.746;2022-08-21T16:13:54;26.80;94.00
34283;DHT22;20542;49.828;8.746;2022-08-21T16:16:21;26.80;93.40
34283;DHT22;20542;49.828;8.746;2022-08-21T16:18:48;26.90;93.60
34283;DHT22;20542;49.828;8.746;2022-08-21T16:21:15;26.90;93.90
34283;DHT22;20542;49.828;8.746;2022-08-21T16:23:40;26.90;93.40
34283;DHT22;20542;49.828;8.746;2022-08-21T16:26:08;26.90;93.00
34283;DHT22;20542;49.828;8.746;2022-08-21T16:28:36;26.90;93.60
34283;DHT22;20542;49.828;8.746;2022-08-21T16:31:03;26.90;93.60
34283;DHT22;20542;49.828;8.746;2022-08-21T16:33:39;26.90;93.60
34283;DHT22;20542;49.828;8.746;2022-08-21T16:36:07;26.90;93.60
34283;DHT22;20542;49.828;8.746;2022-08-21T16:38:34;26.80;93.60
34283;DHT22;20542;49.828;8.746;2022-08-21T16:41:06;26.70;93.70
34283;DHT22;20542;49.828;8.746;2022-08-21T16:43:33;26.70;93.40
34283;DHT22;20542;49.828;8.746;2022-08-21T16:45:59;26.60;93.70
34283;DHT22;20542;49.828;8.746;2022-08-21T16:48:26;26.60;94.00
34283;DHT22;20542;49.828;8.746;2022-08-21T16:50:54;26.50;94.10